Time,TemperatureF,DewpointF,PressureIn,WindDirection,WindDirectionDegrees,WindSpeedMPH,WindSpeedGustMPH,Humidity,HourlyPrecipIn,Conditions,Clouds,dailyrainin,SoftwareType,DateUTC
2015-08-05 00:03:00,99.5,69.0,29.57,South,172,2.0,5.0,37,0.00,,,0.00,weatherlink.com 1.10,2015-08-04 21:03:00,
2015-08-05 00:18:00,99.3,69.0,29.57,South,173,0.0,5.0,37,0.00,,,0.00,weatherlink.com 1.10,2015-08-04 21:18:00,
2015-08-05 00:33:00,99.2,67.0,29.57,South,173,1.0,4.0,35,0.00,,,0.00,weatherlink.com 1.10,2015-08-04 21:33:00,
2015-08-05 00:48:00,99.1,68.0,29.57,SSE,168,3.0,6.0,36,0.00,,,0.00,weatherlink.com 1.10,2015-08-04 21:48:00,
2015-08-05 01:03:00,98.9,68.0,29.57,SSE,168,0.0,2.0,36,0.00,,,0.00,weatherlink.com 1.10,2015-08-04 22:03:00,
2015-08-05 01:18:00,98.8,68.0,29.58,SSE,168,1.0,3.0,36,0.00,,,0.00,weatherlink.com 1.10,2015-08-04 22:18:00,
2015-08-05 01:33:00,99.2,69.0,29.58,South,170,1.0,3.0,38,0.00,,,0.00,weatherlink.com 1.10,2015-08-04 22:33:00,
2015-08-05 01:48:00,98.8,69.0,29.58,SSE,167,0.0,2.0,38,0.00,,,0.00,weatherlink.com 1.10,2015-08-04 22:48:00,
2015-08-05 02:03:00,98.6,69.0,29.58,South,169,0.0,2.0,38,0.00,,,0.00,weatherlink.com 1.10,2015-08-04 23:03:00,
2015-08-05 02:18:00,98.3,70.0,29.58,SSE,168,0.0,4.0,40,0.00,,,0.00,weatherlink.com 1.10,2015-08-04 23:18:00,
2015-08-05 02:33:00,98.1,70.0,29.59,SSE,168,1.0,3.0,40,0.00,,,0.00,weatherlink.com 1.10,2015-08-04 23:33:00,
2015-08-05 02:48:00,97.4,82.0,29.58,SSE,166,3.0,5.0,61,0.00,,,0.00,weatherlink.com 1.10,2015-08-04 23:48:00,
2015-08-05 03:04:00,95.7,84.0,29.59,ESE,106,3.0,5.0,68,0.00,,,0.00,weatherlink.com 1.10,2015-08-05 00:04:00,
2015-08-05 03:19:00,95.2,84.0,29.58,ESE,102,2.0,7.0,69,0.00,,,0.00,weatherlink.com 1.10,2015-08-05 00:19:00,
2015-08-05 03:34:00,94.8,85.0,29.58,ESE,103,4.0,7.0,72,0.00,,,0.00,weatherlink.com 1.10,2015-08-05 00:34:00,
2015-08-05 03:49:00,94.4,84.0,29.59,ESE,102,2.0,5.0,72,0.00,,,0.00,weatherlink.com 1.10,2015-08-05 00:49:00,
2015-08-05 04:04:00,94.0,85.0,29.58,ESE,102,3.0,6.0,74,0.00,,,0.00,weatherlink.com 1.10,2015-08-05 01:04:00,
2015-08-05 04:19:00,94.0,84.0,29.58,East,101,3.0,8.0,72,0.00,,,0.00,weatherlink.com 1.10,2015-08-05 01:19:00,
2015-08-05 04:34:00,94.2,84.0,29.59,ESE,102,0.0,6.0,72,0.00,,,0.00,weatherlink.com 1.10,2015-08-05 01:34:00,
2015-08-05 04:49:00,94.2,84.0,29.59,ESE,102,2.0,6.0,73,0.00,,,0.00,weatherlink.com 1.10,2015-08-05 01:49:00,
2015-08-05 05:04:00,94.0,85.0,29.59,ESE,103,0.0,3.0,74,0.00,,,0.00,weatherlink.com 1.10,2015-08-05 02:04:00,
2015-08-05 05:19:00,93.9,85.0,29.60,ESE,103,3.0,7.0,76,0.00,,,0.00,weatherlink.com 1.10,2015-08-05 02:19:00,
2015-08-05 05:34:00,93.7,86.0,29.59,East,101,0.0,6.0,77,0.00,,,0.00,weatherlink.com 1.10,2015-08-05 02:34:00,
2015-08-05 05:49:00,93.9,85.0,29.60,ESE,102,3.0,6.0,76,0.00,,,0.00,weatherlink.com 1.10,2015-08-05 02:49:00,